Frankfort, Kansas
Current Conditions -  °F | °C
As of 9:35 PM on Saturday 22 Nov 2014 (Local Time) from KMYZ Reporting Station
Overcast Overcast  
Wind Chill: 55°   Ceiling: 1100
Heat Index: 55°   Visibility: 10mi
Dew Point: 52°   Wind: 15mph
Humidity: 88%   Direction: 180°S
Pressure: 29.61"   Gusts: 24mph
Location:  39.71°N, 96.42°W
Report Text: KMYZ 230335Z AUTO 18013G21KT 10SM OVC011 13/11 A2961 RMK AO2
Loading
Personal Weather Stations






























Interactive Weather Map New forecast layout! Learn more

10-Day Weather Forecast

Advertisements
Track Severe Weather on mobile